sensor_id;sensor_type;location;lat;lon;timestamp;temperature;humidity
48208;DHT22;33997;53.278;9.708;2023-05-14T00:02:25;12.00;70.60
48208;DHT22;33997;53.278;9.708;2023-05-14T00:04:52;12.00;70.50
48208;DHT22;33997;53.278;9.708;2023-05-14T00:07:17;12.00;70.30
48208;DHT22;33997;53.278;9.708;2023-05-14T00:09:43;11.80;70.90
48208;DHT22;33997;53.278;9.708;2023-05-14T00:12:08;11.90;69.90
48208;DHT22;33997;53.278;9.708;2023-05-14T00:14:34;11.80;71.10
48208;DHT22;33997;53.278;9.708;2023-05-14T00:16:59;11.90;70.90
48208;DHT22;33997;53.278;9.708;2023-05-14T00:19:25;11.90;70.70
48208;DHT22;33997;53.278;9.708;2023-05-14T00:21:51;11.70;70.60
48208;DHT22;33997;53.278;9.708;2023-05-14T00:24:17;11.60;71.30
48208;DHT22;33997;53.278;9.708;2023-05-14T00:26:42;11.50;71.50
48208;DHT22;33997;53.278;9.708;2023-05-14T00:29:08;11.50;72.00
48208;DHT22;33997;53.278;9.708;2023-05-14T00:31:34;11.50;71.90
48208;DHT22;33997;53.278;9.708;2023-05-14T00:33:59;11.50;72.10
48208;DHT22;33997;53.278;9.708;2023-05-14T00:36:24;11.40;72.40
48208;DHT22;33997;53.278;9.708;2023-05-14T00:38:50;11.40;72.30
48208;DHT22;33997;53.278;9.708;2023-05-14T00:41:15;11.30;73.10
48208;DHT22;33997;53.278;9.708;2023-05-14T00:43:41;11.30;72.80
48208;DHT22;33997;53.278;9.708;2023-05-14T00:46:06;11.20;74.10
48208;DHT22;33997;53.278;9.708;2023-05-14T00:48:32;11.10;74.40
48208;DHT22;33997;53.278;9.708;2023-05-14T00:50:58;11.00;74.40
48208;DHT22;33997;53.278;9.708;2023-05-14T00:53:24;11.00;74.30
48208;DHT22;33997;53.278;9.708;2023-05-14T00:55:49;11.00;74.20
48208;DHT22;33997;53.278;9.708;2023-05-14T00:58:17;10.90;75.80
48208;DHT22;33997;53.278;9.708;2023-05-14T01:00:42;10.80;76.50
48208;DHT22;33997;53.278;9.708;2023-05-14T01:03:08;10.70;76.00
48208;DHT22;33997;53.278;9.708;2023-05-14T01:09:16;10.50;76.20
48208;DHT22;33997;53.278;9.708;2023-05-14T01:14:19;10.50;76.60
48208;DHT22;33997;53.278;9.708;2023-05-14T01:16:48;10.40;77.80
48208;DHT22;33997;53.278;9.708;2023-05-14T01:21:58;10.30;78.20
48208;DHT22;33997;53.278;9.708;2023-05-14T01:24:23;10.30;79.50
48208;DHT22;33997;53.278;9.708;2023-05-14T01:26:49;10.30;80.30
48208;DHT22;33997;53.278;9.708;2023-05-14T01:29:20;10.20;80.00
48208;DHT22;33997;53.278;9.708;2023-05-14T01:31:48;10.20;80.00
48208;DHT22;33997;53.278;9.708;2023-05-14T01:34:15;10.10;79.50
48208;DHT22;33997;53.278;9.708;2023-05-14T01:36:44;10.10;80.30
48208;DHT22;33997;53.278;9.708;2023-05-14T01:39:13;10.10;80.30
48208;DHT22;33997;53.278;9.708;2023-05-14T01:41:39;10.10;80.90
48208;DHT22;33997;53.278;9.708;2023-05-14T01:44:10;10.20;79.80
48208;DHT22;33997;53.278;9.708;2023-05-14T01:46:35;10.30;80.00
48208;DHT22;33997;53.278;9.708;2023-05-14T01:49:01;10.50;78.70
48208;DHT22;33997;53.278;9.708;2023-05-14T01:51:26;10.50;78.30
48208;DHT22;33997;53.278;9.708;2023-05-14T01:53:52;10.40;78.50
48208;DHT22;33997;53.278;9.708;2023-05-14T01:56:19;10.40;78.60
48208;DHT22;33997;53.278;9.708;2023-05-14T01:58:46;10.30;78.80
48208;DHT22;33997;53.278;9.708;2023-05-14T02:01:11;10.30;79.30
48208;DHT22;33997;53.278;9.708;2023-05-14T02:03:37;10.30;79.40
48208;DHT22;33997;53.278;9.708;2023-05-14T02:06:02;10.30;79.60
48208;DHT22;33997;53.278;9.708;2023-05-14T02:08:28;10.20;79.60
48208;DHT22;33997;53.278;9.708;2023-05-14T02:10:53;10.10;80.30
48208;DHT22;33997;53.278;9.708;2023-05-14T02:13:19;10.10;80.40
48208;DHT22;33997;53.278;9.708;2023-05-14T02:15:44;10.00;80.60
48208;DHT22;33997;53.278;9.708;2023-05-14T02:18:09;9.90;80.70
48208;DHT22;33997;53.278;9.708;2023-05-14T02:20:35;9.80;81.30
48208;DHT22;33997;53.278;9.708;2023-05-14T02:23:00;9.80;81.00
48208;DHT22;33997;53.278;9.708;2023-05-14T02:25:26;9.80;81.50
48208;DHT22;33997;53.278;9.708;2023-05-14T02:27:51;9.60;82.10
48208;DHT22;33997;53.278;9.708;2023-05-14T02:30:17;9.60;82.20
48208;DHT22;33997;53.278;9.708;2023-05-14T02:32:42;9.60;81.80
48208;DHT22;33997;53.278;9.708;2023-05-14T02:35:08;9.50;82.00
48208;DHT22;33997;53.278;9.708;2023-05-14T02:37:33;9.50;82.40
48208;DHT22;33997;53.278;9.708;2023-05-14T02:39:59;9.40;82.70
48208;DHT22;33997;53.278;9.708;2023-05-14T02:42:25;9.30;82.60
48208;DHT22;33997;53.278;9.708;2023-05-14T02:44:51;9.40;83.90
48208;DHT22;33997;53.278;9.708;2023-05-14T02:47:17;9.40;84.20
48208;DHT22;33997;53.278;9.708;2023-05-14T02:49:42;9.30;83.70
48208;DHT22;33997;53.278;9.708;2023-05-14T02:52:08;9.30;83.70
48208;DHT22;33997;53.278;9.708;2023-05-14T02:54:33;9.50;84.20
48208;DHT22;33997;53.278;9.708;2023-05-14T02:56:59;9.40;84.40
48208;DHT22;33997;53.278;9.708;2023-05-14T02:59:25;9.50;83.90
48208;DHT22;33997;53.278;9.708;2023-05-14T03:01:50;9.60;83.80
48208;DHT22;33997;53.278;9.708;2023-05-14T03:04:16;9.70;82.60
48208;DHT22;33997;53.278;9.708;2023-05-14T03:06:41;9.70;82.70
48208;DHT22;33997;53.278;9.708;2023-05-14T03:09:07;9.90;82.10
48208;DHT22;33997;53.278;9.708;2023-05-14T03:11:32;9.90;81.90
48208;DHT22;33997;53.278;9.708;2023-05-14T03:13:58;9.80;82.30
48208;DHT22;33997;53.278;9.708;2023-05-14T03:16:23;9.80;82.00
48208;DHT22;33997;53.278;9.708;2023-05-14T03:18:49;9.80;83.00
48208;DHT22;33997;53.278;9.708;2023-05-14T03:21:14;9.70;82.60
48208;DHT22;33997;53.278;9.708;2023-05-14T03:23:40;9.60;82.80
48208;DHT22;33997;53.278;9.708;2023-05-14T03:26:05;9.50;83.70
48208;DHT22;33997;53.278;9.708;2023-05-14T03:28:32;9.50;83.20
48208;DHT22;33997;53.278;9.708;2023-05-14T03:30:57;9.40;83.60
48208;DHT22;33997;53.278;9.708;2023-05-14T03:33:24;9.30;83.80
48208;DHT22;33997;53.278;9.708;2023-05-14T03:35:50;9.30;84.30
48208;DHT22;33997;53.278;9.708;2023-05-14T03:38:16;9.30;84.20
48208;DHT22;33997;53.278;9.708;2023-05-14T03:40:43;9.30;84.10
48208;DHT22;33997;53.278;9.708;2023-05-14T03:43:09;9.20;84.70
48208;DHT22;33997;53.278;9.708;2023-05-14T03:45:35;9.20;84.60
48208;DHT22;33997;53.278;9.708;2023-05-14T03:48:01;9.20;85.20
48208;DHT22;33997;53.278;9.708;2023-05-14T03:50:26;9.20;84.80
48208;DHT22;33997;53.278;9.708;2023-05-14T03:52:52;9.10;84.80
48208;DHT22;33997;53.278;9.708;2023-05-14T03:55:19;9.10;85.00
48208;DHT22;33997;53.278;9.708;2023-05-14T03:57:44;9.30;85.70
48208;DHT22;33997;53.278;9.708;2023-05-14T04:00:10;9.40;84.80
48208;DHT22;33997;53.278;9.708;2023-05-14T04:02:36;9.30;85.30
48208;DHT22;33997;53.278;9.708;2023-05-14T04:05:01;9.30;85.60
48208;DHT22;33997;53.278;9.708;2023-05-14T04:07:27;9.40;86.10
48208;DHT22;33997;53.278;9.708;2023-05-14T04:09:52;9.60;85.70
48208;DHT22;33997;53.278;9.708;2023-05-14T04:12:18;9.60;85.60
48208;DHT22;33997;53.278;9.708;2023-05-14T04:14:43;9.70;85.20
48208;DHT22;33997;53.278;9.708;2023-05-14T04:17:09;9.80;85.20
48208;DHT22;33997;53.278;9.708;2023-05-14T04:19:34;10.00;84.80
48208;DHT22;33997;53.278;9.708;2023-05-14T04:22:00;10.00;85.00
48208;DHT22;33997;53.278;9.708;2023-05-14T04:24:25;10.10;84.80
48208;DHT22;33997;53.278;9.708;2023-05-14T04:26:51;10.10;84.70
48208;DHT22;33997;53.278;9.708;2023-05-14T04:29:16;10.20;84.40
48208;DHT22;33997;53.278;9.708;2023-05-14T04:31:41;10.30;84.30
48208;DHT22;33997;53.278;9.708;2023-05-14T04:34:07;10.30;84.20
48208;DHT22;33997;53.278;9.708;2023-05-14T04:36:33;10.30;85.00
48208;DHT22;33997;53.278;9.708;2023-05-14T04:38:58;10.30;84.10
48208;DHT22;33997;53.278;9.708;2023-05-14T04:41:24;10.50;83.60
48208;DHT22;33997;53.278;9.708;2023-05-14T04:43:49;10.50;84.10
48208;DHT22;33997;53.278;9.708;2023-05-14T04:46:15;10.50;83.90
48208;DHT22;33997;53.278;9.708;2023-05-14T04:48:40;10.70;84.10
48208;DHT22;33997;53.278;9.708;2023-05-14T04:51:06;10.80;83.30
48208;DHT22;33997;53.278;9.708;2023-05-14T04:53:32;11.10;81.90
48208;DHT22;33997;53.278;9.708;2023-05-14T04:55:57;11.10;81.80
48208;DHT22;33997;53.278;9.708;2023-05-14T04:58:23;11.40;80.70
48208;DHT22;33997;53.278;9.708;2023-05-14T05:00:49;11.40;81.50
48208;DHT22;33997;53.278;9.708;2023-05-14T05:03:14;11.40;82.00
48208;DHT22;33997;53.278;9.708;2023-05-14T05:05:40;11.50;81.10
48208;DHT22;33997;53.278;9.708;2023-05-14T05:08:05;11.50;81.80
48208;DHT22;33997;53.278;9.708;2023-05-14T05:10:31;11.50;81.80
48208;DHT22;33997;53.278;9.708;2023-05-14T05:12:56;11.70;80.50
48208;DHT22;33997;53.278;9.708;2023-05-14T05:15:22;11.80;81.30
48208;DHT22;33997;53.278;9.708;2023-05-14T05:17:47;11.80;81.00
48208;DHT22;33997;53.278;9.708;2023-05-14T05:20:13;11.80;80.80
48208;DHT22;33997;53.278;9.708;2023-05-14T05:22:38;12.00;80.20
48208;DHT22;33997;53.278;9.708;2023-05-14T05:25:04;12.10;79.70
48208;DHT22;33997;53.278;9.708;2023-05-14T05:27:31;12.30;79.60
48208;DHT22;33997;53.278;9.708;2023-05-14T05:29:57;12.50;78.20
48208;DHT22;33997;53.278;9.708;2023-05-14T05:32:22;12.50;78.40
48208;DHT22;33997;53.278;9.708;2023-05-14T05:34:48;12.60;77.70
48208;DHT22;33997;53.278;9.708;2023-05-14T05:37:16;12.80;77.10
48208;DHT22;33997;53.278;9.708;2023-05-14T05:39:41;13.00;76.20
48208;DHT22;33997;53.278;9.708;2023-05-14T05:42:07;13.00;76.60
48208;DHT22;33997;53.278;9.708;2023-05-14T05:44:32;13.10;75.50
48208;DHT22;33997;53.278;9.708;2023-05-14T05:46:58;13.30;75.80
48208;DHT22;33997;53.278;9.708;2023-05-14T05:49:23;13.40;74.70
48208;DHT22;33997;53.278;9.708;2023-05-14T05:51:49;13.50;74.00
48208;DHT22;33997;53.278;9.708;2023-05-14T05:54:14;13.70;73.70
48208;DHT22;33997;53.278;9.708;2023-05-14T05:56:40;13.80;73.40
48208;DHT22;33997;53.278;9.708;2023-05-14T05:59:05;14.00;74.50
48208;DHT22;33997;53.278;9.708;2023-05-14T06:01:31;14.10;74.70
48208;DHT22;33997;53.278;9.708;2023-05-14T06:03:56;14.30;73.60
48208;DHT22;33997;53.278;9.708;2023-05-14T06:06:22;14.40;72.30
48208;DHT22;33997;53.278;9.708;2023-05-14T06:08:47;14.60;71.90
48208;DHT22;33997;53.278;9.708;2023-05-14T06:11:13;14.70;72.20
48208;DHT22;33997;53.278;9.708;2023-05-14T06:13:39;14.80;71.50
48208;DHT22;33997;53.278;9.708;2023-05-14T06:16:05;15.00;69.90
48208;DHT22;33997;53.278;9.708;2023-05-14T06:18:30;15.10;72.30
48208;DHT22;33997;53.278;9.708;2023-05-14T06:20:56;15.30;70.10
48208;DHT22;33997;53.278;9.708;2023-05-14T06:23:24;15.50;69.70
48208;DHT22;33997;53.278;9.708;2023-05-14T06:25:50;15.50;68.00
48208;DHT22;33997;53.278;9.708;2023-05-14T06:28:16;15.60;68.90
48208;DHT22;33997;53.278;9.708;2023-05-14T06:30:41;15.80;67.80
48208;DHT22;33997;53.278;9.708;2023-05-14T06:33:07;15.80;66.70
48208;DHT22;33997;53.278;9.708;2023-05-14T06:35:32;16.00;67.00
48208;DHT22;33997;53.278;9.708;2023-05-14T06:37:59;16.20;67.30
48208;DHT22;33997;53.278;9.708;2023-05-14T06:40:24;16.40;68.00
48208;DHT22;33997;53.278;9.708;2023-05-14T06:42:50;16.50;66.90
48208;DHT22;33997;53.278;9.708;2023-05-14T06:45:15;17.00;68.40
48208;DHT22;33997;53.278;9.708;2023-05-14T06:47:41;17.20;66.80
48208;DHT22;33997;53.278;9.708;2023-05-14T06:50:06;17.10;63.70
48208;DHT22;33997;53.278;9.708;2023-05-14T06:52:32;17.30;65.40
48208;DHT22;33997;53.278;9.708;2023-05-14T06:54:57;17.60;64.40
48208;DHT22;33997;53.278;9.708;2023-05-14T06:57:23;17.80;64.10
48208;DHT22;33997;53.278;9.708;2023-05-14T06:59:48;17.90;62.00
48208;DHT22;33997;53.278;9.708;2023-05-14T07:02:14;18.00;60.80
48208;DHT22;33997;53.278;9.708;2023-05-14T07:04:39;17.70;60.40
48208;DHT22;33997;53.278;9.708;2023-05-14T07:07:05;18.10;60.90
48208;DHT22;33997;53.278;9.708;2023-05-14T07:09:30;18.30;59.70
48208;DHT22;33997;53.278;9.708;2023-05-14T07:11:56;18.70;59.20
48208;DHT22;33997;53.278;9.708;2023-05-14T07:14:21;18.70;58.10
48208;DHT22;33997;53.278;9.708;2023-05-14T07:16:47;19.00;59.60
48208;DHT22;33997;53.278;9.708;2023-05-14T07:19:12;19.10;56.20
48208;DHT22;33997;53.278;9.708;2023-05-14T07:21:38;18.70;58.10
48208;DHT22;33997;53.278;9.708;2023-05-14T07:24:04;18.90;55.60
48208;DHT22;33997;53.278;9.708;2023-05-14T07:26:29;19.10;54.90
48208;DHT22;33997;53.278;9.708;2023-05-14T07:28:55;19.50;55.60
48208;DHT22;33997;53.278;9.708;2023-05-14T07:31:21;19.90;54.40
48208;DHT22;33997;53.278;9.708;2023-05-14T07:33:46;19.50;53.80
48208;DHT22;33997;53.278;9.708;2023-05-14T07:36:12;19.60;53.60
48208;DHT22;33997;53.278;9.708;2023-05-14T07:38:38;20.20;55.30
48208;DHT22;33997;53.278;9.708;2023-05-14T07:41:03;20.40;51.70
48208;DHT22;33997;53.278;9.708;2023-05-14T07:43:29;20.20;51.40
48208;DHT22;33997;53.278;9.708;2023-05-14T07:45:55;20.10;52.10
48208;DHT22;33997;53.278;9.708;2023-05-14T07:48:20;19.80;52.90
48208;DHT22;33997;53.278;9.708;2023-05-14T07:50:47;20.40;53.70
48208;DHT22;33997;53.278;9.708;2023-05-14T07:53:13;20.50;50.20
48208;DHT22;33997;53.278;9.708;2023-05-14T07:55:38;20.40;50.30
48208;DHT22;33997;53.278;9.708;2023-05-14T07:58:04;20.90;51.60
48208;DHT22;33997;53.278;9.708;2023-05-14T08:00:30;21.00;51.50
48208;DHT22;33997;53.278;9.708;2023-05-14T08:02:55;21.00;48.40
48208;DHT22;33997;53.278;9.708;2023-05-14T08:05:21;21.00;47.40
48208;DHT22;33997;53.278;9.708;2023-05-14T08:07:46;21.00;48.60
48208;DHT22;33997;53.278;9.708;2023-05-14T08:10:12;20.70;49.90
48208;DHT22;33997;53.278;9.708;2023-05-14T08:12:38;21.20;49.70
48208;DHT22;33997;53.278;9.708;2023-05-14T08:15:04;20.60;48.70
48208;DHT22;33997;53.278;9.708;2023-05-14T08:17:31;21.00;50.30
48208;DHT22;33997;53.278;9.708;2023-05-14T08:19:57;21.10;48.90
48208;DHT22;33997;53.278;9.708;2023-05-14T08:22:22;21.30;48.20
48208;DHT22;33997;53.278;9.708;2023-05-14T08:24:48;21.00;48.70
48208;DHT22;33997;53.278;9.708;2023-05-14T08:27:14;21.80;47.80
48208;DHT22;33997;53.278;9.708;2023-05-14T08:29:40;22.10;48.80
48208;DHT22;33997;53.278;9.708;2023-05-14T08:32:06;22.30;47.50
48208;DHT22;33997;53.278;9.708;2023-05-14T08:34:31;22.00;45.10
48208;DHT22;33997;53.278;9.708;2023-05-14T08:36:57;21.50;45.20
48208;DHT22;33997;53.278;9.708;2023-05-14T08:39:23;21.40;46.90
48208;DHT22;33997;53.278;9.708;2023-05-14T08:41:49;21.10;45.80
48208;DHT22;33997;53.278;9.708;2023-05-14T08:44:18;21.20;47.40
48208;DHT22;33997;53.278;9.708;2023-05-14T08:46:45;21.40;45.50
48208;DHT22;33997;53.278;9.708;2023-05-14T08:49:42;21.40;47.00
48208;DHT22;33997;53.278;9.708;2023-05-14T08:52:10;22.20;48.10
48208;DHT22;33997;53.278;9.708;2023-05-14T08:54:35;22.50;45.50
48208;DHT22;33997;53.278;9.708;2023-05-14T08:57:04;22.30;44.10
48208;DHT22;33997;53.278;9.708;2023-05-14T08:59:30;22.40;43.20
48208;DHT22;33997;53.278;9.708;2023-05-14T09:01:59;22.20;44.00
48208;DHT22;33997;53.278;9.708;2023-05-14T09:04:25;22.00;44.30
48208;DHT22;33997;53.278;9.708;2023-05-14T09:06:53;21.80;43.40
48208;DHT22;33997;53.278;9.708;2023-05-14T09:09:19;21.40;43.50
48208;DHT22;33997;53.278;9.708;2023-05-14T09:11:51;21.50;45.00
48208;DHT22;33997;53.278;9.708;2023-05-14T09:14:18;22.30;43.50
48208;DHT22;33997;53.278;9.708;2023-05-14T09:16:44;22.90;45.70
48208;DHT22;33997;53.278;9.708;2023-05-14T09:19:11;22.90;41.10
48208;DHT22;33997;53.278;9.708;2023-05-14T09:21:37;22.00;39.90
48208;DHT22;33997;53.278;9.708;2023-05-14T09:24:02;21.80;42.10
48208;DHT22;33997;53.278;9.708;2023-05-14T09:26:31;21.70;45.20
48208;DHT22;33997;53.278;9.708;2023-05-14T09:28:58;21.40;43.70
48208;DHT22;33997;53.278;9.708;2023-05-14T09:31:28;22.00;44.20
48208;DHT22;33997;53.278;9.708;2023-05-14T09:33:54;21.60;44.40
48208;DHT22;33997;53.278;9.708;2023-05-14T09:36:20;21.40;44.40
48208;DHT22;33997;53.278;9.708;2023-05-14T09:38:45;21.10;43.60
48208;DHT22;33997;53.278;9.708;2023-05-14T09:41:11;21.00;43.90
48208;DHT22;33997;53.278;9.708;2023-05-14T09:43:37;21.00;45.20
48208;DHT22;33997;53.278;9.708;2023-05-14T09:46:02;20.80;43.80
48208;DHT22;33997;53.278;9.708;2023-05-14T09:48:28;21.50;46.10
48208;DHT22;33997;53.278;9.708;2023-05-14T09:50:53;22.00;42.50
48208;DHT22;33997;53.278;9.708;2023-05-14T09:53:19;22.90;41.40
48208;DHT22;33997;53.278;9.708;2023-05-14T09:55:45;23.30;41.10
48208;DHT22;33997;53.278;9.708;2023-05-14T09:58:11;23.00;40.80
48208;DHT22;33997;53.278;9.708;2023-05-14T10:00:38;22.30;40.10
48208;DHT22;33997;53.278;9.708;2023-05-14T10:03:07;21.50;42.30
48208;DHT22;33997;53.278;9.708;2023-05-14T10:05:38;21.60;45.30
48208;DHT22;33997;53.278;9.708;2023-05-14T10:08:19;21.50;42.80
48208;DHT22;33997;53.278;9.708;2023-05-14T10:10:47;21.50;43.90
48208;DHT22;33997;53.278;9.708;2023-05-14T10:13:19;21.50;44.80
48208;DHT22;33997;53.278;9.708;2023-05-14T10:15:48;21.50;45.30
48208;DHT22;33997;53.278;9.708;2023-05-14T10:18:18;21.30;43.50
48208;DHT22;33997;53.278;9.708;2023-05-14T10:21:03;21.20;44.40
48208;DHT22;33997;53.278;9.708;2023-05-14T10:23:29;21.50;45.40
48208;DHT22;33997;53.278;9.708;2023-05-14T10:25:56;21.70;42.70
48208;DHT22;33997;53.278;9.708;2023-05-14T10:28:22;21.90;43.80
48208;DHT22;33997;53.278;9.708;2023-05-14T10:30:48;22.20;45.60
48208;DHT22;33997;53.278;9.708;2023-05-14T10:33:14;21.80;41.40
48208;DHT22;33997;53.278;9.708;2023-05-14T10:36:00;22.00;45.70
48208;DHT22;33997;53.278;9.708;2023-05-14T10:38:34;21.40;40.40
48208;DHT22;33997;53.278;9.708;2023-05-14T10:41:02;21.10;41.70
48208;DHT22;33997;53.278;9.708;2023-05-14T10:43:28;21.40;44.00
48208;DHT22;33997;53.278;9.708;2023-05-14T10:45:56;21.10;41.60
48208;DHT22;33997;53.278;9.708;2023-05-14T10:48:22;21.70;42.80
48208;DHT22;33997;53.278;9.708;2023-05-14T10:50:50;22.30;41.10
48208;DHT22;33997;53.278;9.708;2023-05-14T10:53:16;22.40;41.10
48208;DHT22;33997;53.278;9.708;2023-05-14T10:55:42;22.00;40.20
48208;DHT22;33997;53.278;9.708;2023-05-14T10:58:09;21.80;40.00
48208;DHT22;33997;53.278;9.708;2023-05-14T11:00:35;22.00;43.50
48208;DHT22;33997;53.278;9.708;2023-05-14T11:03:03;21.80;40.50
48208;DHT22;33997;53.278;9.708;2023-05-14T11:05:30;21.60;41.50
48208;DHT22;33997;53.278;9.708;2023-05-14T11:07:57;21.60;41.20
48208;DHT22;33997;53.278;9.708;2023-05-14T11:10:23;21.00;42.50
48208;DHT22;33997;53.278;9.708;2023-05-14T11:12:51;21.20;41.50
48208;DHT22;33997;53.278;9.708;2023-05-14T11:15:20;21.40;43.50
48208;DHT22;33997;53.278;9.708;2023-05-14T11:17:47;21.60;44.20
48208;DHT22;33997;53.278;9.708;2023-05-14T11:20:14;21.40;41.70
48208;DHT22;33997;53.278;9.708;2023-05-14T11:22:41;21.20;42.60
48208;DHT22;33997;53.278;9.708;2023-05-14T11:25:08;21.50;43.20
48208;DHT22;33997;53.278;9.708;2023-05-14T11:27:36;21.40;43.00
48208;DHT22;33997;53.278;9.708;2023-05-14T11:30:02;21.30;42.20
48208;DHT22;33997;53.278;9.708;2023-05-14T11:32:30;21.50;42.10
48208;DHT22;33997;53.278;9.708;2023-05-14T11:34:56;21.60;43.00
48208;DHT22;33997;53.278;9.708;2023-05-14T11:37:21;21.90;42.10
48208;DHT22;33997;53.278;9.708;2023-05-14T11:39:52;22.10;41.60
48208;DHT22;33997;53.278;9.708;2023-05-14T11:42:18;22.20;40.20
48208;DHT22;33997;53.278;9.708;2023-05-14T11:44:51;22.70;41.90
48208;DHT22;33997;53.278;9.708;2023-05-14T11:47:19;23.40;40.40
48208;DHT22;33997;53.278;9.708;2023-05-14T11:49:46;24.00;36.80
48208;DHT22;33997;53.278;9.708;2023-05-14T11:52:14;23.70;38.50
48208;DHT22;33997;53.278;9.708;2023-05-14T11:54:41;24.20;35.80
48208;DHT22;33997;53.278;9.708;2023-05-14T11:57:17;24.00;39.60
48208;DHT22;33997;53.278;9.708;2023-05-14T11:59:44;24.20;36.00
48208;DHT22;33997;53.278;9.708;2023-05-14T12:02:14;24.50;34.90
48208;DHT22;33997;53.278;9.708;2023-05-14T12:04:42;25.20;33.40
48208;DHT22;33997;53.278;9.708;2023-05-14T12:07:10;25.70;32.20
48208;DHT22;33997;53.278;9.708;2023-05-14T12:09:41;26.00;32.10
48208;DHT22;33997;53.278;9.708;2023-05-14T12:12:08;25.90;31.30
48208;DHT22;33997;53.278;9.708;2023-05-14T12:14:37;25.50;34.60
48208;DHT22;33997;53.278;9.708;2023-05-14T12:17:10;24.80;33.30
48208;DHT22;33997;53.278;9.708;2023-05-14T12:19:39;23.50;35.90
48208;DHT22;33997;53.278;9.708;2023-05-14T12:22:04;23.60;38.80
48208;DHT22;33997;53.278;9.708;2023-05-14T12:24:30;23.70;37.60
48208;DHT22;33997;53.278;9.708;2023-05-14T12:26:56;24.10;35.20
48208;DHT22;33997;53.278;9.708;2023-05-14T12:29:25;24.30;36.20
48208;DHT22;33997;53.278;9.708;2023-05-14T12:31:51;24.70;35.60
48208;DHT22;33997;53.278;9.708;2023-05-14T12:34:16;24.70;36.10
48208;DHT22;33997;53.278;9.708;2023-05-14T12:36:42;24.00;36.40
48208;DHT22;33997;53.278;9.708;2023-05-14T12:39:09;23.70;38.60
48208;DHT22;33997;53.278;9.708;2023-05-14T12:41:35;24.70;38.00
48208;DHT22;33997;53.278;9.708;2023-05-14T12:44:02;24.80;38.00
48208;DHT22;33997;53.278;9.708;2023-05-14T12:46:28;24.60;35.30
48208;DHT22;33997;53.278;9.708;2023-05-14T12:48:54;24.00;33.80
48208;DHT22;33997;53.278;9.708;2023-05-14T12:51:20;24.00;34.80
48208;DHT22;33997;53.278;9.708;2023-05-14T12:53:45;24.50;35.10
48208;DHT22;33997;53.278;9.708;2023-05-14T12:56:12;24.70;34.80
48208;DHT22;33997;53.278;9.708;2023-05-14T12:58:38;24.70;35.40
48208;DHT22;33997;53.278;9.708;2023-05-14T13:01:04;24.70;35.00
48208;DHT22;33997;53.278;9.708;2023-05-14T13:03:30;24.40;35.10
48208;DHT22;33997;53.278;9.708;2023-05-14T13:05:55;24.00;35.60
48208;DHT22;33997;53.278;9.708;2023-05-14T13:08:22;23.90;35.00
48208;DHT22;33997;53.278;9.708;2023-05-14T13:10:50;23.90;36.50
48208;DHT22;33997;53.278;9.708;2023-05-14T13:13:16;23.90;35.50
48208;DHT22;33997;53.278;9.708;2023-05-14T13:15:41;24.20;35.50
48208;DHT22;33997;53.278;9.708;2023-05-14T13:18:07;23.90;34.00
48208;DHT22;33997;53.278;9.708;2023-05-14T13:20:33;24.00;36.40
48208;DHT22;33997;53.278;9.708;2023-05-14T13:22:59;23.10;37.60
48208;DHT22;33997;53.278;9.708;2023-05-14T13:25:25;22.50;40.90
48208;DHT22;33997;53.278;9.708;2023-05-14T13:27:50;22.60;42.20
48208;DHT22;33997;53.278;9.708;2023-05-14T13:30:17;21.70;47.90
48208;DHT22;33997;53.278;9.708;2023-05-14T13:32:42;21.10;48.80
48208;DHT22;33997;53.278;9.708;2023-05-14T13:35:08;20.60;53.30
48208;DHT22;33997;53.278;9.708;2023-05-14T13:37:35;20.40;55.10
48208;DHT22;33997;53.278;9.708;2023-05-14T13:40:00;20.30;55.70
48208;DHT22;33997;53.278;9.708;2023-05-14T13:42:26;20.30;57.20
48208;DHT22;33997;53.278;9.708;2023-05-14T13:44:51;20.20;55.30
48208;DHT22;33997;53.278;9.708;2023-05-14T13:47:17;20.30;54.90
48208;DHT22;33997;53.278;9.708;2023-05-14T13:49:42;20.40;54.90
48208;DHT22;33997;53.278;9.708;2023-05-14T13:52:08;20.30;50.10
48208;DHT22;33997;53.278;9.708;2023-05-14T13:54:33;20.50;50.50
48208;DHT22;33997;53.278;9.708;2023-05-14T13:56:59;20.60;55.00
48208;DHT22;33997;53.278;9.708;2023-05-14T13:59:24;20.60;52.50
48208;DHT22;33997;53.278;9.708;2023-05-14T14:01:50;20.70;51.50
48208;DHT22;33997;53.278;9.708;2023-05-14T14:04:16;20.50;45.40
48208;DHT22;33997;53.278;9.708;2023-05-14T14:06:42;20.40;46.50
48208;DHT22;33997;53.278;9.708;2023-05-14T14:09:08;20.40;46.10
48208;DHT22;33997;53.278;9.708;2023-05-14T14:11:34;20.30;47.00
48208;DHT22;33997;53.278;9.708;2023-05-14T14:13:59;20.50;47.90
48208;DHT22;33997;53.278;9.708;2023-05-14T14:16:25;20.50;48.60
48208;DHT22;33997;53.278;9.708;2023-05-14T14:18:50;20.40;45.50
48208;DHT22;33997;53.278;9.708;2023-05-14T14:21:16;20.30;46.60
48208;DHT22;33997;53.278;9.708;2023-05-14T14:23:44;20.40;45.10
48208;DHT22;33997;53.278;9.708;2023-05-14T14:26:10;20.40;45.40
48208;DHT22;33997;53.278;9.708;2023-05-14T14:28:35;20.40;45.90
48208;DHT22;33997;53.278;9.708;2023-05-14T14:31:01;20.40;43.60
48208;DHT22;33997;53.278;9.708;2023-05-14T14:33:27;20.30;46.30
48208;DHT22;33997;53.278;9.708;2023-05-14T14:35:52;20.30;45.70
48208;DHT22;33997;53.278;9.708;2023-05-14T14:38:18;20.30;46.20
48208;DHT22;33997;53.278;9.708;2023-05-14T14:40:43;20.40;44.60
48208;DHT22;33997;53.278;9.708;2023-05-14T14:43:10;20.40;43.60
48208;DHT22;33997;53.278;9.708;2023-05-14T14:45:35;20.20;44.10
48208;DHT22;33997;53.278;9.708;2023-05-14T14:48:25;20.00;47.70
48208;DHT22;33997;53.278;9.708;2023-05-14T14:50:51;20.00;49.20
48208;DHT22;33997;53.278;9.708;2023-05-14T14:53:18;20.00;50.40
48208;DHT22;33997;53.278;9.708;2023-05-14T14:55:43;19.90;50.70
48208;DHT22;33997;53.278;9.708;2023-05-14T14:58:09;19.90;51.50
48208;DHT22;33997;53.278;9.708;2023-05-14T15:00:34;19.70;51.60
48208;DHT22;33997;53.278;9.708;2023-05-14T15:03:00;19.60;51.80
48208;DHT22;33997;53.278;9.708;2023-05-14T15:05:25;19.50;51.10
48208;DHT22;33997;53.278;9.708;2023-05-14T15:07:51;19.30;52.80
48208;DHT22;33997;53.278;9.708;2023-05-14T15:10:16;19.10;51.20
48208;DHT22;33997;53.278;9.708;2023-05-14T15:12:42;19.10;52.60
48208;DHT22;33997;53.278;9.708;2023-05-14T15:15:08;19.10;52.40
48208;DHT22;33997;53.278;9.708;2023-05-14T15:17:33;19.00;52.10
48208;DHT22;33997;53.278;9.708;2023-05-14T15:19:59;19.00;52.70
48208;DHT22;33997;53.278;9.708;2023-05-14T15:22:24;19.20;54.70
48208;DHT22;33997;53.278;9.708;2023-05-14T15:24:50;19.30;52.90
48208;DHT22;33997;53.278;9.708;2023-05-14T15:27:16;19.40;53.70
48208;DHT22;33997;53.278;9.708;2023-05-14T15:29:41;19.50;54.10
48208;DHT22;33997;53.278;9.708;2023-05-14T15:32:07;19.50;54.20
48208;DHT22;33997;53.278;9.708;2023-05-14T15:34:33;19.50;53.00
48208;DHT22;33997;53.278;9.708;2023-05-14T15:36:58;19.50;52.70